Log in Register

Login to your account

Username *
Password *
Remember Me

Create an account

Fields marked with an asterisk (*) are required.
Name *
Username *
Password *
Verify password *
Email *
Verify email *

Please enter the email address for your account. A verification code will be sent to you. Once you have received the verification code, you will be able to choose a new password for your account.

Nous contacter

 Téléphone : +33 (0)4 79 54 41 81

Coordonnées détaillées et accès : cliquez ici

 
LFLB °C
    Ferienhaus Ostsee
[source: ADDS]
METAR
LFLB 261200Z AUTO VRB12G31KT 9999 FEW035/// BKN048/// BKN064/// ///TCU 07/M03 Q1010 TEMPO 2500 SHGS BKN014 SCT020CB =
TAF LFLB 261100Z 2612/2712 VRB10KT 9999 BKN035 TEMPO 2612/2624 VRB15G25KT 4000 SHRA SCT020TCU TEMPO 2613/2618 36010KT PROB40 TEMPO 2612/2620 2500 SHGS BKN014 SCT020CB PROB30 TEMPO 2612/2620 SHRASN PROB30 TEMPO 2620/2624 2000 SHSN BKN009 FM270200 18005KT CAVOK BECMG 2709/2711 4000 RA OVC025 PROB40 TEMPO 2710/2712 16015G25KT 2500 SNRA BKN014
TAF
TAF LFLB 261100Z 2612/2712 VRB10KT 9999 BKN035 TEMPO 2612/2624 VRB15G25KT 4000 SHRA SCT020TCU TEMPO 2613/2618 36010KT PROB40 TEMPO 2612/2620 2500 SHGS BKN014 SCT020CB PROB30 TEMPO 2612/2620 SHRASN PROB30 TEMPO 2620/2624 2000 SHSN BKN009 FM270200 18005KT CAVOK BECMG 2709/2711 4000 RA OVC025 PROB40 TEMPO 2710/2712 16015G25KT 2500 SNRA BKN014 =
SR / SS: 06:20 / 17:17 UTC (Lever/Coucher du soleil le 2020-02-26)
JSN Boot template designed by JoomlaShine.com